sensor_id;sensor_type;location;lat;lon;timestamp;pressure;altitude;pressure_sealevel;temperature;humidity
39141;BME280;24875;48.436;10.298;2023-02-16T00:00:41;97340.56;;;1.00;100.00
39141;BME280;24875;48.436;10.298;2023-02-16T00:03:10;97334.34;;;1.17;100.00
39141;BME280;24875;48.436;10.298;2023-02-16T00:05:37;97332.59;;;0.89;100.00
39141;BME280;24875;48.436;10.298;2023-02-16T00:08:03;97324.53;;;0.94;100.00
39141;BME280;24875;48.436;10.298;2023-02-16T00:10:32;97340.75;;;0.97;100.00
39141;BME280;24875;48.436;10.298;2023-02-16T00:12:59;97335.09;;;0.91;100.00
39141;BME280;24875;48.436;10.298;2023-02-16T00:15:45;97337.84;;;1.02;100.00
39141;BME280;24875;48.436;10.298;2023-02-16T00:18:16;97328.88;;;1.07;100.00
39141;BME280;24875;48.436;10.298;2023-02-16T00:20:43;97330.81;;;1.04;100.00
39141;BME280;24875;48.436;10.298;2023-02-16T00:23:10;97332.66;;;1.02;100.00
39141;BME280;24875;48.436;10.298;2023-02-16T00:25:37;97328.13;;;0.63;100.00
39141;BME280;24875;48.436;10.298;2023-02-16T00:28:09;97326.19;;;0.67;100.00
39141;BME280;24875;48.436;10.298;2023-02-16T00:30:38;97320.72;;;0.58;100.00
39141;BME280;24875;48.436;10.298;2023-02-16T00:33:13;97323.31;;;0.71;100.00
39141;BME280;24875;48.436;10.298;2023-02-16T00:35:39;97325.25;;;0.54;100.00
39141;BME280;24875;48.436;10.298;2023-02-16T00:38:06;97322.34;;;0.58;100.00
39141;BME280;24875;48.436;10.298;2023-02-16T00:40:32;97325.34;;;0.66;100.00
39141;BME280;24875;48.436;10.298;2023-02-16T00:42:59;97326.88;;;0.41;100.00
39141;BME280;24875;48.436;10.298;2023-02-16T00:45:26;97326.91;;;0.55;100.00
39141;BME280;24875;48.436;10.298;2023-02-16T00:47:53;97318.53;;;0.36;100.00
39141;BME280;24875;48.436;10.298;2023-02-16T00:50:23;97320.59;;;0.45;100.00
39141;BME280;24875;48.436;10.298;2023-02-16T00:52:51;97317.16;;;0.31;100.00
39141;BME280;24875;48.436;10.298;2023-02-16T00:55:19;97312.59;;;0.34;100.00
39141;BME280;24875;48.436;10.298;2023-02-16T00:57:49;97314.28;;;0.35;100.00
39141;BME280;24875;48.436;10.298;2023-02-16T01:00:20;97310.34;;;0.58;100.00
39141;BME280;24875;48.436;10.298;2023-02-16T01:02:49;97311.34;;;0.55;100.00
39141;BME280;24875;48.436;10.298;2023-02-16T01:05:17;97307.09;;;0.54;100.00
39141;BME280;24875;48.436;10.298;2023-02-16T01:07:45;97303.91;;;0.35;100.00
39141;BME280;24875;48.436;10.298;2023-02-16T01:10:29;97298.13;;;0.16;100.00
39141;BME280;24875;48.436;10.298;2023-02-16T01:13:30;97305.09;;;0.30;100.00
39141;BME280;24875;48.436;10.298;2023-02-16T01:15:58;97297.84;;;0.07;100.00
39141;BME280;24875;48.436;10.298;2023-02-16T01:18:24;97305.31;;;0.11;100.00
39141;BME280;24875;48.436;10.298;2023-02-16T01:20:51;97294.06;;;0.26;100.00
39141;BME280;24875;48.436;10.298;2023-02-16T01:23:19;97294.75;;;0.30;100.00
39141;BME280;24875;48.436;10.298;2023-02-16T01:25:45;97297.00;;;0.06;100.00
39141;BME280;24875;48.436;10.298;2023-02-16T01:28:18;97298.78;;;0.20;100.00
39141;BME280;24875;48.436;10.298;2023-02-16T01:30:45;97299.88;;;0.16;100.00
39141;BME280;24875;48.436;10.298;2023-02-16T01:33:11;97310.25;;;0.16;100.00
39141;BME280;24875;48.436;10.298;2023-02-16T01:35:38;97312.50;;;0.22;100.00
39141;BME280;24875;48.436;10.298;2023-02-16T01:38:05;97316.63;;;0.10;100.00
39141;BME280;24875;48.436;10.298;2023-02-16T01:40:39;97326.84;;;0.27;100.00
39141;BME280;24875;48.436;10.298;2023-02-16T01:43:15;97322.34;;;0.31;100.00
39141;BME280;24875;48.436;10.298;2023-02-16T01:45:47;97327.03;;;0.24;100.00
39141;BME280;24875;48.436;10.298;2023-02-16T01:48:21;97335.28;;;0.31;100.00
39141;BME280;24875;48.436;10.298;2023-02-16T01:50:55;97331.75;;;0.18;100.00
39141;BME280;24875;48.436;10.298;2023-02-16T01:53:27;97330.94;;;0.31;100.00
39141;BME280;24875;48.436;10.298;2023-02-16T01:55:59;97325.19;;;0.26;100.00
39141;BME280;24875;48.436;10.298;2023-02-16T01:58:34;97328.53;;;0.28;100.00
39141;BME280;24875;48.436;10.298;2023-02-16T02:01:31;97315.56;;;0.28;100.00
39141;BME280;24875;48.436;10.298;2023-02-16T02:04:02;97313.09;;;-0.02;100.00
39141;BME280;24875;48.436;10.298;2023-02-16T02:06:51;97316.00;;;-0.08;100.00
39141;BME280;24875;48.436;10.298;2023-02-16T02:09:21;97306.03;;;0.29;100.00
39141;BME280;24875;48.436;10.298;2023-02-16T02:11:56;97278.28;;;0.31;100.00
39141;BME280;24875;48.436;10.298;2023-02-16T02:14:31;97279.19;;;0.30;100.00
39141;BME280;24875;48.436;10.298;2023-02-16T02:17:00;97272.88;;;0.20;100.00
39141;BME280;24875;48.436;10.298;2023-02-16T02:19:28;97268.50;;;0.20;100.00
39141;BME280;24875;48.436;10.298;2023-02-16T02:22:15;97263.91;;;0.39;100.00
39141;BME280;24875;48.436;10.298;2023-02-16T02:25:22;97257.00;;;0.40;100.00
39141;BME280;24875;48.436;10.298;2023-02-16T02:28:03;97272.44;;;0.27;100.00
39141;BME280;24875;48.436;10.298;2023-02-16T02:30:42;97262.44;;;0.35;100.00
39141;BME280;24875;48.436;10.298;2023-02-16T02:33:23;97256.69;;;0.44;100.00
39141;BME280;24875;48.436;10.298;2023-02-16T02:35:58;97263.38;;;0.48;100.00
39141;BME280;24875;48.436;10.298;2023-02-16T02:38:37;97264.31;;;0.33;100.00
39141;BME280;24875;48.436;10.298;2023-02-16T02:41:11;97260.75;;;0.34;100.00
39141;BME280;24875;48.436;10.298;2023-02-16T02:43:44;97258.16;;;0.20;100.00
39141;BME280;24875;48.436;10.298;2023-02-16T02:46:15;97262.56;;;0.04;100.00
39141;BME280;24875;48.436;10.298;2023-02-16T02:48:44;97256.63;;;-0.11;100.00
39141;BME280;24875;48.436;10.298;2023-02-16T02:51:11;97248.69;;;0.05;100.00
39141;BME280;24875;48.436;10.298;2023-02-16T02:54:00;97255.19;;;0.12;100.00
39141;BME280;24875;48.436;10.298;2023-02-16T02:56:49;97262.34;;;-0.06;100.00
39141;BME280;24875;48.436;10.298;2023-02-16T02:59:37;97263.38;;;0.05;100.00
39141;BME280;24875;48.436;10.298;2023-02-16T03:02:25;97264.63;;;0.13;100.00
39141;BME280;24875;48.436;10.298;2023-02-16T03:04:52;97266.19;;;0.16;100.00
39141;BME280;24875;48.436;10.298;2023-02-16T03:07:23;97263.72;;;0.14;100.00
39141;BME280;24875;48.436;10.298;2023-02-16T03:10:11;97261.91;;;0.01;100.00
39141;BME280;24875;48.436;10.298;2023-02-16T03:12:56;97263.31;;;0.06;100.00
39141;BME280;24875;48.436;10.298;2023-02-16T03:15:26;97263.81;;;0.13;100.00
39141;BME280;24875;48.436;10.298;2023-02-16T03:17:55;97261.94;;;0.15;100.00
39141;BME280;24875;48.436;10.298;2023-02-16T03:20:41;97260.94;;;0.17;100.00
39141;BME280;24875;48.436;10.298;2023-02-16T03:23:27;97257.59;;;0.15;100.00
39141;BME280;24875;48.436;10.298;2023-02-16T03:26:12;97257.75;;;0.12;100.00
39141;BME280;24875;48.436;10.298;2023-02-16T03:28:59;97264.28;;;0.19;100.00
39141;BME280;24875;48.436;10.298;2023-02-16T03:31:45;97267.03;;;0.16;100.00
39141;BME280;24875;48.436;10.298;2023-02-16T03:34:12;97271.44;;;0.00;100.00
39141;BME280;24875;48.436;10.298;2023-02-16T03:36:41;97270.63;;;0.14;100.00
39141;BME280;24875;48.436;10.298;2023-02-16T03:39:09;97272.78;;;0.21;100.00
39141;BME280;24875;48.436;10.298;2023-02-16T03:41:39;97267.78;;;0.18;100.00
39141;BME280;24875;48.436;10.298;2023-02-16T03:44:06;97273.75;;;0.05;100.00
39141;BME280;24875;48.436;10.298;2023-02-16T03:46:33;97271.44;;;0.00;100.00
39141;BME280;24875;48.436;10.298;2023-02-16T03:49:01;97272.75;;;0.07;100.00
39141;BME280;24875;48.436;10.298;2023-02-16T03:51:28;97270.69;;;-0.02;100.00
39141;BME280;24875;48.436;10.298;2023-02-16T03:53:55;97272.69;;;-0.06;100.00
39141;BME280;24875;48.436;10.298;2023-02-16T03:56:21;97267.28;;;-0.02;100.00
39141;BME280;24875;48.436;10.298;2023-02-16T03:58:48;97272.25;;;0.01;100.00
39141;BME280;24875;48.436;10.298;2023-02-16T04:01:14;97273.13;;;0.01;100.00
39141;BME280;24875;48.436;10.298;2023-02-16T04:03:41;97270.69;;;-0.02;100.00
39141;BME280;24875;48.436;10.298;2023-02-16T04:06:08;97265.31;;;-0.12;100.00
39141;BME280;24875;48.436;10.298;2023-02-16T04:08:35;97261.47;;;-0.21;100.00
39141;BME280;24875;48.436;10.298;2023-02-16T04:11:02;97257.63;;;-0.14;100.00
39141;BME280;24875;48.436;10.298;2023-02-16T04:13:48;97255.56;;;-0.09;100.00
39141;BME280;24875;48.436;10.298;2023-02-16T04:16:13;97261.44;;;-0.05;100.00
39141;BME280;24875;48.436;10.298;2023-02-16T04:18:40;97265.94;;;-0.09;100.00
39141;BME280;24875;48.436;10.298;2023-02-16T04:21:06;97270.13;;;-0.06;100.00
39141;BME280;24875;48.436;10.298;2023-02-16T04:23:34;97268.31;;;0.09;100.00
39141;BME280;24875;48.436;10.298;2023-02-16T04:26:01;97272.75;;;0.07;100.00
39141;BME280;24875;48.436;10.298;2023-02-16T04:28:27;97271.63;;;0.11;100.00
39141;BME280;24875;48.436;10.298;2023-02-16T04:30:54;97269.53;;;0.04;100.00
39141;BME280;24875;48.436;10.298;2023-02-16T04:33:20;97272.09;;;0.04;100.00
39141;BME280;24875;48.436;10.298;2023-02-16T04:35:47;97274.69;;;0.04;100.00
39141;BME280;24875;48.436;10.298;2023-02-16T04:38:13;97278.88;;;0.06;100.00
39141;BME280;24875;48.436;10.298;2023-02-16T04:40:41;97297.59;;;0.25;100.00
39141;BME280;24875;48.436;10.298;2023-02-16T04:43:08;97293.88;;;0.15;100.00
39141;BME280;24875;48.436;10.298;2023-02-16T04:45:34;97291.69;;;0.23;100.00
39141;BME280;24875;48.436;10.298;2023-02-16T04:48:01;97297.69;;;0.24;100.00
39141;BME280;24875;48.436;10.298;2023-02-16T04:50:27;97296.63;;;0.12;100.00
39141;BME280;24875;48.436;10.298;2023-02-16T04:52:54;97301.09;;;0.10;100.00
39141;BME280;24875;48.436;10.298;2023-02-16T04:55:20;97296.63;;;0.12;100.00
39141;BME280;24875;48.436;10.298;2023-02-16T04:57:48;97293.88;;;0.15;100.00
39141;BME280;24875;48.436;10.298;2023-02-16T05:00:15;97298.38;;;-0.02;100.00
39141;BME280;24875;48.436;10.298;2023-02-16T05:02:42;97299.06;;;-0.14;100.00
39141;BME280;24875;48.436;10.298;2023-02-16T05:05:08;97303.72;;;-0.05;100.00
39141;BME280;24875;48.436;10.298;2023-02-16T05:07:35;97299.19;;;-0.02;100.00
39141;BME280;24875;48.436;10.298;2023-02-16T05:10:01;97308.81;;;-0.03;100.00
39141;BME280;24875;48.436;10.298;2023-02-16T05:12:28;97305.47;;;-0.05;100.00
39141;BME280;24875;48.436;10.298;2023-02-16T05:15:14;97298.84;;;0.04;100.00
39141;BME280;24875;48.436;10.298;2023-02-16T05:17:40;97295.16;;;0.08;100.00
39141;BME280;24875;48.436;10.298;2023-02-16T05:20:07;97290.31;;;0.02;100.00
39141;BME280;24875;48.436;10.298;2023-02-16T05:22:34;97292.34;;;-0.02;100.00
39141;BME280;24875;48.436;10.298;2023-02-16T05:25:03;97298.84;;;0.04;100.00
39141;BME280;24875;48.436;10.298;2023-02-16T05:27:30;97293.47;;;0.07;100.00
39141;BME280;24875;48.436;10.298;2023-02-16T05:29:57;97296.81;;;0.09;100.00
39141;BME280;24875;48.436;10.298;2023-02-16T05:32:25;97298.13;;;0.16;100.00
39141;BME280;24875;48.436;10.298;2023-02-16T05:34:52;97307.56;;;0.17;100.00
39141;BME280;24875;48.436;10.298;2023-02-16T05:37:18;97306.19;;;0.12;100.00
39141;BME280;24875;48.436;10.298;2023-02-16T05:39:45;97310.44;;;0.13;100.00
39141;BME280;24875;48.436;10.298;2023-02-16T05:42:12;97308.88;;;0.10;100.00
39141;BME280;24875;48.436;10.298;2023-02-16T05:44:38;97312.72;;;0.03;100.00
39141;BME280;24875;48.436;10.298;2023-02-16T05:47:05;97302.66;;;0.13;100.00
39141;BME280;24875;48.436;10.298;2023-02-16T05:49:33;97299.50;;;0.08;100.00
39141;BME280;24875;48.436;10.298;2023-02-16T05:51:59;97302.44;;;0.02;100.00
39141;BME280;24875;48.436;10.298;2023-02-16T05:54:26;97311.22;;;-0.01;100.00
39141;BME280;24875;48.436;10.298;2023-02-16T05:56:52;97313.56;;;0.04;100.00
39141;BME280;24875;48.436;10.298;2023-02-16T05:59:19;97314.38;;;0.04;100.00
39141;BME280;24875;48.436;10.298;2023-02-16T06:01:46;97316.97;;;0.04;100.00
39141;BME280;24875;48.436;10.298;2023-02-16T06:04:13;97312.56;;;0.06;100.00
39141;BME280;24875;48.436;10.298;2023-02-16T06:06:41;97318.38;;;0.10;100.00
39141;BME280;24875;48.436;10.298;2023-02-16T06:09:08;97324.75;;;0.04;100.00
39141;BME280;24875;48.436;10.298;2023-02-16T06:11:35;97327.25;;;0.06;100.00
39141;BME280;24875;48.436;10.298;2023-02-16T06:14:03;97323.31;;;0.14;100.00
39141;BME280;24875;48.436;10.298;2023-02-16T06:16:31;97329.22;;;0.16;100.00
39141;BME280;24875;48.436;10.298;2023-02-16T06:18:58;97331.91;;;0.15;100.00
39141;BME280;24875;48.436;10.298;2023-02-16T06:21:25;97339.28;;;0.07;100.00
39141;BME280;24875;48.436;10.298;2023-02-16T06:23:54;97346.91;;;0.24;100.00
39141;BME280;24875;48.436;10.298;2023-02-16T06:26:21;97345.72;;;0.29;100.00
39141;BME280;24875;48.436;10.298;2023-02-16T06:28:47;97347.25;;;0.33;100.00
39141;BME280;24875;48.436;10.298;2023-02-16T06:31:14;97344.09;;;0.28;100.00
39141;BME280;24875;48.436;10.298;2023-02-16T06:33:41;97345.91;;;0.26;100.00
39141;BME280;24875;48.436;10.298;2023-02-16T06:36:08;97340.72;;;0.26;100.00
39141;BME280;24875;48.436;10.298;2023-02-16T06:38:34;97347.78;;;0.24;100.00
39141;BME280;24875;48.436;10.298;2023-02-16T06:41:03;97343.31;;;0.26;100.00
39141;BME280;24875;48.436;10.298;2023-02-16T06:43:29;97339.97;;;0.10;100.00
39141;BME280;24875;48.436;10.298;2023-02-16T06:45:56;97341.97;;;0.05;100.00
39141;BME280;24875;48.436;10.298;2023-02-16T06:48:22;97342.47;;;0.12;100.00
39141;BME280;24875;48.436;10.298;2023-02-16T06:50:49;97340.69;;;0.12;100.00
39141;BME280;24875;48.436;10.298;2023-02-16T06:53:16;97342.94;;;0.18;100.00
39141;BME280;24875;48.436;10.298;2023-02-16T06:55:43;97345.72;;;0.29;100.00
39141;BME280;24875;48.436;10.298;2023-02-16T06:58:11;97364.44;;;0.34;100.00
39141;BME280;24875;48.436;10.298;2023-02-16T07:00:37;97369.56;;;0.36;100.00
39141;BME280;24875;48.436;10.298;2023-02-16T07:03:04;97369.56;;;0.06;100.00
39141;BME280;24875;48.436;10.298;2023-02-16T07:05:30;97363.88;;;0.29;100.00
39141;BME280;24875;48.436;10.298;2023-02-16T07:07:57;97360.59;;;0.41;100.00
39141;BME280;24875;48.436;10.298;2023-02-16T07:10:23;97366.06;;;0.51;100.00
39141;BME280;24875;48.436;10.298;2023-02-16T07:12:50;97370.91;;;0.57;100.00
39141;BME280;24875;48.436;10.298;2023-02-16T07:15:18;97371.50;;;0.75;100.00
39141;BME280;24875;48.436;10.298;2023-02-16T07:17:44;97379.84;;;0.80;100.00
39141;BME280;24875;48.436;10.298;2023-02-16T07:20:11;97370.41;;;0.93;100.00
39141;BME280;24875;48.436;10.298;2023-02-16T07:22:38;97374.00;;;0.91;100.00
39141;BME280;24875;48.436;10.298;2023-02-16T07:25:05;97375.03;;;0.88;100.00
39141;BME280;24875;48.436;10.298;2023-02-16T07:27:32;97375.22;;;0.85;100.00
39141;BME280;24875;48.436;10.298;2023-02-16T07:29:58;97374.75;;;0.93;100.00
39141;BME280;24875;48.436;10.298;2023-02-16T07:32:28;97375.50;;;1.09;100.00
39141;BME280;24875;48.436;10.298;2023-02-16T07:34:54;97368.84;;;1.05;100.00
39141;BME280;24875;48.436;10.298;2023-02-16T07:37:20;97370.97;;;1.12;100.00
39141;BME280;24875;48.436;10.298;2023-02-16T07:39:47;97373.47;;;1.14;100.00
39141;BME280;24875;48.436;10.298;2023-02-16T07:42:13;97379.03;;;1.21;100.00
39141;BME280;24875;48.436;10.298;2023-02-16T07:44:40;97377.34;;;1.20;100.00
39141;BME280;24875;48.436;10.298;2023-02-16T07:47:06;97376.69;;;1.31;100.00
39141;BME280;24875;48.436;10.298;2023-02-16T07:49:34;97370.22;;;1.38;100.00
39141;BME280;24875;48.436;10.298;2023-02-16T07:52:01;97378.47;;;1.30;100.00
39141;BME280;24875;48.436;10.298;2023-02-16T07:54:27;97375.50;;;1.36;100.00
39141;BME280;24875;48.436;10.298;2023-02-16T07:56:53;97378.91;;;1.51;100.00
39141;BME280;24875;48.436;10.298;2023-02-16T07:59:20;97379.16;;;1.60;100.00
39141;BME280;24875;48.436;10.298;2023-02-16T08:01:46;97384.53;;;1.71;100.00
39141;BME280;24875;48.436;10.298;2023-02-16T08:04:13;97372.22;;;1.87;100.00
39141;BME280;24875;48.436;10.298;2023-02-16T08:06:41;97377.75;;;2.09;100.00
39141;BME280;24875;48.436;10.298;2023-02-16T08:09:08;97379.09;;;2.14;100.00
39141;BME280;24875;48.436;10.298;2023-02-16T08:11:34;97377.38;;;2.27;100.00
39141;BME280;24875;48.436;10.298;2023-02-16T08:14:01;97375.34;;;2.44;100.00
39141;BME280;24875;48.436;10.298;2023-02-16T08:16:28;97379.13;;;2.65;100.00
39141;BME280;24875;48.436;10.298;2023-02-16T08:18:56;97375.91;;;2.74;100.00
39141;BME280;24875;48.436;10.298;2023-02-16T08:21:25;97379.88;;;2.80;100.00
39141;BME280;24875;48.436;10.298;2023-02-16T08:23:56;97377.06;;;2.95;100.00
39141;BME280;24875;48.436;10.298;2023-02-16T08:26:26;97374.38;;;2.97;100.00
39141;BME280;24875;48.436;10.298;2023-02-16T08:28:53;97381.13;;;2.99;100.00
39141;BME280;24875;48.436;10.298;2023-02-16T08:31:23;97382.06;;;3.10;100.00
39141;BME280;24875;48.436;10.298;2023-02-16T08:33:51;97377.38;;;3.28;100.00
39141;BME280;24875;48.436;10.298;2023-02-16T08:36:18;97375.53;;;3.30;100.00
39141;BME280;24875;48.436;10.298;2023-02-16T08:38:45;97386.94;;;3.40;100.00
39141;BME280;24875;48.436;10.298;2023-02-16T08:41:15;97380.06;;;3.51;100.00
39141;BME280;24875;48.436;10.298;2023-02-16T08:43:42;97376.94;;;3.46;100.00
39141;BME280;24875;48.436;10.298;2023-02-16T08:46:08;97378.41;;;3.50;100.00
39141;BME280;24875;48.436;10.298;2023-02-16T08:48:35;97378.81;;;3.57;100.00
39141;BME280;24875;48.436;10.298;2023-02-16T08:51:03;97379.53;;;3.59;100.00
39141;BME280;24875;48.436;10.298;2023-02-16T08:53:31;97379.09;;;3.77;100.00
39141;BME280;24875;48.436;10.298;2023-02-16T08:56:02;97386.34;;;3.84;100.00
39141;BME280;24875;48.436;10.298;2023-02-16T08:58:31;97378.16;;;4.01;100.00
39141;BME280;24875;48.436;10.298;2023-02-16T09:00:57;97378.69;;;4.06;100.00
39141;BME280;24875;48.436;10.298;2023-02-16T09:03:28;97374.94;;;4.21;100.00
39141;BME280;24875;48.436;10.298;2023-02-16T09:06:00;97378.75;;;4.51;100.00
39141;BME280;24875;48.436;10.298;2023-02-16T09:08:27;97377.69;;;4.54;100.00
39141;BME280;24875;48.436;10.298;2023-02-16T09:10:54;97376.19;;;4.62;100.00
39141;BME280;24875;48.436;10.298;2023-02-16T09:13:20;97381.13;;;4.78;100.00
39141;BME280;24875;48.436;10.298;2023-02-16T09:15:48;97383.00;;;4.76;100.00
39141;BME280;24875;48.436;10.298;2023-02-16T09:18:15;97384.47;;;4.90;100.00
39141;BME280;24875;48.436;10.298;2023-02-16T09:20:42;97375.00;;;5.00;100.00
39141;BME280;24875;48.436;10.298;2023-02-16T09:23:09;97384.38;;;5.14;100.00
39141;BME280;24875;48.436;10.298;2023-02-16T09:25:37;97380.50;;;5.30;100.00
39141;BME280;24875;48.436;10.298;2023-02-16T09:28:05;97383.69;;;5.44;100.00
39141;BME280;24875;48.436;10.298;2023-02-16T09:30:34;97379.53;;;5.42;100.00
39141;BME280;24875;48.436;10.298;2023-02-16T09:33:04;97376.94;;;5.75;100.00
39141;BME280;24875;48.436;10.298;2023-02-16T09:35:31;97379.06;;;5.70;100.00
39141;BME280;24875;48.436;10.298;2023-02-16T09:37:57;97376.09;;;5.96;99.23
39141;BME280;24875;48.436;10.298;2023-02-16T09:40:24;97379.41;;;5.98;98.12
39141;BME280;24875;48.436;10.298;2023-02-16T09:43:01;97375.25;;;6.17;97.42
39141;BME280;24875;48.436;10.298;2023-02-16T09:45:30;97372.44;;;6.30;97.52
39141;BME280;24875;48.436;10.298;2023-02-16T09:47:59;97377.06;;;6.37;96.54
39141;BME280;24875;48.436;10.298;2023-02-16T09:50:29;97375.56;;;6.55;96.35
39141;BME280;24875;48.436;10.298;2023-02-16T09:52:59;97380.91;;;6.65;95.07
39141;BME280;24875;48.436;10.298;2023-02-16T09:55:32;97374.97;;;6.83;95.80
39141;BME280;24875;48.436;10.298;2023-02-16T09:58:10;97380.66;;;6.88;94.81
39141;BME280;24875;48.436;10.298;2023-02-16T10:00:48;97379.13;;;7.06;93.26
39141;BME280;24875;48.436;10.298;2023-02-16T10:03:30;97386.28;;;7.24;93.04
39141;BME280;24875;48.436;10.298;2023-02-16T10:06:16;97384.16;;;7.38;93.39
39141;BME280;24875;48.436;10.298;2023-02-16T10:08:50;97388.88;;;7.44;92.61
39141;BME280;24875;48.436;10.298;2023-02-16T10:11:23;97377.78;;;7.31;91.34
39141;BME280;24875;48.436;10.298;2023-02-16T10:14:10;97372.47;;;7.42;92.10
39141;BME280;24875;48.436;10.298;2023-02-16T10:16:40;97365.94;;;7.67;90.95
39141;BME280;24875;48.436;10.298;2023-02-16T10:19:16;97364.63;;;7.82;88.82
39141;BME280;24875;48.436;10.298;2023-02-16T10:21:50;97357.06;;;7.97;89.10
39141;BME280;24875;48.436;10.298;2023-02-16T10:24:18;97359.91;;;7.85;88.76
39141;BME280;24875;48.436;10.298;2023-02-16T10:26:47;97345.13;;;8.23;88.29
39141;BME280;24875;48.436;10.298;2023-02-16T10:29:19;97349.72;;;8.49;86.26
39141;BME280;24875;48.436;10.298;2023-02-16T10:31:53;97347.94;;;8.59;85.30
39141;BME280;24875;48.436;10.298;2023-02-16T10:34:37;97343.38;;;8.71;84.84
39141;BME280;24875;48.436;10.298;2023-02-16T10:40:13;97337.94;;;8.82;83.30
39141;BME280;24875;48.436;10.298;2023-02-16T10:42:45;97342.78;;;8.96;83.40
39141;BME280;24875;48.436;10.298;2023-02-16T10:45:20;97341.00;;;8.96;83.75
39141;BME280;24875;48.436;10.298;2023-02-16T10:47:48;97337.94;;;9.10;82.37
39141;BME280;24875;48.436;10.298;2023-02-16T10:50:20;97331.97;;;9.54;83.57
39141;BME280;24875;48.436;10.298;2023-02-16T10:52:50;97329.91;;;9.57;81.63
39141;BME280;24875;48.436;10.298;2023-02-16T10:55:17;97340.28;;;9.59;79.74
39141;BME280;24875;48.436;10.298;2023-02-16T10:57:50;97333.66;;;9.81;78.97
39141;BME280;24875;48.436;10.298;2023-02-16T11:00:22;97331.31;;;9.78;76.16
39141;BME280;24875;48.436;10.298;2023-02-16T11:02:49;97323.34;;;9.97;76.14
39141;BME280;24875;48.436;10.298;2023-02-16T11:05:33;97317.63;;;10.29;75.59
39141;BME280;24875;48.436;10.298;2023-02-16T11:08:02;97317.53;;;10.38;76.08
39141;BME280;24875;48.436;10.298;2023-02-16T11:10:39;97323.00;;;10.54;72.57
39141;BME280;24875;48.436;10.298;2023-02-16T11:13:07;97312.78;;;10.59;73.13
39141;BME280;24875;48.436;10.298;2023-02-16T11:15:42;97312.88;;;10.67;73.64
39141;BME280;24875;48.436;10.298;2023-02-16T11:18:26;97314.34;;;10.87;71.31
39141;BME280;24875;48.436;10.298;2023-02-16T11:20:54;97305.78;;;10.85;70.93
39141;BME280;24875;48.436;10.298;2023-02-16T11:23:24;97307.47;;;10.68;69.98
39141;BME280;24875;48.436;10.298;2023-02-16T11:25:57;97296.31;;;10.57;69.93
39141;BME280;24875;48.436;10.298;2023-02-16T11:28:29;97290.25;;;10.82;70.02
39141;BME280;24875;48.436;10.298;2023-02-16T11:31:04;97283.78;;;10.93;68.71
39141;BME280;24875;48.436;10.298;2023-02-16T11:33:36;97289.75;;;11.03;69.99
39141;BME280;24875;48.436;10.298;2023-02-16T11:36:17;97299.53;;;11.11;66.88
39141;BME280;24875;48.436;10.298;2023-02-16T11:38:57;97282.22;;;11.08;67.76
39141;BME280;24875;48.436;10.298;2023-02-16T11:41:25;97284.34;;;11.05;66.36
39141;BME280;24875;48.436;10.298;2023-02-16T11:43:53;97280.63;;;11.15;67.60
39141;BME280;24875;48.436;10.298;2023-02-16T11:46:22;97270.47;;;11.28;67.07
39141;BME280;24875;48.436;10.298;2023-02-16T11:48:50;97275.13;;;11.34;65.93
39141;BME280;24875;48.436;10.298;2023-02-16T11:51:30;97281.47;;;11.49;63.77
39141;BME280;24875;48.436;10.298;2023-02-16T11:54:04;97264.88;;;11.56;64.99
39141;BME280;24875;48.436;10.298;2023-02-16T11:56:43;97268.59;;;11.46;64.44
39141;BME280;24875;48.436;10.298;2023-02-16T11:59:26;97257.34;;;11.44;64.28
39141;BME280;24875;48.436;10.298;2023-02-16T12:02:19;97244.31;;;11.68;61.82
39141;BME280;24875;48.436;10.298;2023-02-16T12:05:01;97250.78;;;11.81;60.54
39141;BME280;24875;48.436;10.298;2023-02-16T12:07:37;97238.75;;;11.87;61.43
39141;BME280;24875;48.436;10.298;2023-02-16T12:10:09;97243.66;;;11.74;61.04
39141;BME280;24875;48.436;10.298;2023-02-16T12:12:44;97246.06;;;11.93;61.17
39141;BME280;24875;48.436;10.298;2023-02-16T12:15:20;97237.63;;;12.05;61.69
39141;BME280;24875;48.436;10.298;2023-02-16T12:17:59;97230.84;;;11.95;60.86
39141;BME280;24875;48.436;10.298;2023-02-16T12:20:40;97227.25;;;12.12;61.76
39141;BME280;24875;48.436;10.298;2023-02-16T12:23:18;97228.25;;;12.11;63.27
39141;BME280;24875;48.436;10.298;2023-02-16T12:25:59;97229.94;;;12.19;62.36
39141;BME280;24875;48.436;10.298;2023-02-16T12:28:34;97229.41;;;12.32;60.39
39141;BME280;24875;48.436;10.298;2023-02-16T12:31:13;97222.00;;;12.27;61.04
39141;BME280;24875;48.436;10.298;2023-02-16T12:33:51;97221.66;;;12.22;61.00
39141;BME280;24875;48.436;10.298;2023-02-16T12:36:31;97218.50;;;12.19;61.72
39141;BME280;24875;48.436;10.298;2023-02-16T12:39:11;97216.03;;;12.17;61.63
39141;BME280;24875;48.436;10.298;2023-02-16T12:41:46;97212.59;;;12.33;60.74
39141;BME280;24875;48.436;10.298;2023-02-16T12:44:19;97208.78;;;12.27;60.54
39141;BME280;24875;48.436;10.298;2023-02-16T12:46:55;97211.44;;;12.43;59.34
39141;BME280;24875;48.436;10.298;2023-02-16T12:49:30;97206.13;;;12.43;58.51
39141;BME280;24875;48.436;10.298;2023-02-16T12:52:03;97202.16;;;12.47;58.11
39141;BME280;24875;48.436;10.298;2023-02-16T12:54:37;97193.91;;;12.58;58.75
39141;BME280;24875;48.436;10.298;2023-02-16T12:57:10;97191.91;;;12.76;57.60
39141;BME280;24875;48.436;10.298;2023-02-16T12:59:40;97181.69;;;12.73;56.48
39141;BME280;24875;48.436;10.298;2023-02-16T13:02:14;97181.69;;;12.73;55.20
39141;BME280;24875;48.436;10.298;2023-02-16T13:04:46;97175.22;;;12.83;54.11
39141;BME280;24875;48.436;10.298;2023-02-16T13:07:19;97173.72;;;12.81;54.31
39141;BME280;24875;48.436;10.298;2023-02-16T13:09:52;97172.41;;;12.93;53.57
39141;BME280;24875;48.436;10.298;2023-02-16T13:12:29;97164.47;;;13.01;54.93